Ashford, WA

11:11 PM PDT on September 23, 2014 (GMT -0700)
Mineral Creek Rd | Change Station
CLOSE
Current Station
Personal Weather Station
Location: Mineral, WA
Elevation: 1411 ft
Nearby Weather Stations

Elev 1411 ft 46.72 °N, 122.15 °W | Updated 12 seconds ago

Rain
Rain
58.5 °F
Feels Like 58.5 °F
N
0.0
Wind Variable Wind from West
Gusts 0.0 mph

Today
High -- | Low -- °F
--% Chance of Precip.
Yesterday
High -- | Low -- °F
Precip. -- in
6:56 AM 7:03 PM
Waning Crescent, 0% visible
Pressure 29.70 in
Visibility 6.0 miles
Clouds Few 500 ft
Overcast 7000 ft
Dew Point 58 °F
Humidity 99%
Rainfall 0.00 in
Snow Depth 0 in , 0 in , 0 in
UV 0 out of 12
Pollen .40 out of 12
Air Quality Not available.
Flu Activity Not available.
SPECI KTCM 240600Z AUTO 00000KT 6SM -RA BR FEW005 OVC070 16/16 A2970 RMK AO2 $

More Conditions Fewer Conditions

Pressure 29.70 in
Visibility 6.0 miles
Clouds Few 500 ft
Overcast 7000 ft
Dew Point 58 °F
Humidity 99%
Rainfall 0.00 in
Snow Depth 0 in , 0 in , 0 in
UV 0 out of 12
Pollen .40 out of 12
Air Quality Not available.
Flu Activity Not available.
SPECI KTCM 240600Z AUTO 00000KT 6SM -RA BR FEW005 OVC070 16/16 A2970 RMK AO2 $

More Conditions Fewer Conditions

10-Day Weather Forecast

Almanac

Astronomy

Sep. 23, 2014 Rise Set
Actual Time 6:56 AM PDT 7:03 PM PDT
Civil Twilight 6:25 AM PDT 7:33 PM PDT
Nautical Twilight 5:50 AM PDT 8:08 PM PDT
Astronomical Twilight 5:13 AM PDT 8:45 PM PDT
Moon 6:25 AM PDT (9/23) 6:43 PM PDT (9/23)
Length of Visible Light 13h 07m
Length of Day
12h 07m
Tomorrow will be 3m 18s shorter.
Waning Crescent, 0% of the Moon is Illuminated
Sep 24
Waning Crescent
Sep 24
New
Oct 1
First Quarter
Oct 8
Full
Oct 15
Last Quarter

Yesterday's Extremes

State Highs State Lows

Community

WunderPhotos

Upload Photos

1,755,891 photos uploaded!

WunderBlogs® & News

Nearby

Snow Depth

Station Depth Elevation
Alpine Meadows 0 in 3500 ft
Morse Lake 0 in 5400 ft
June Lake 0 in 3340 ft
Surprise Lakes 0 in 4250 ft
Harts Pass 0 in 6500 ft

Earthquake Activity

City Distance Mag. Time & Date
No recent earthquake activity has been reported nearby.
Minimum magnitude displayed is 2.5.

Coastal Water Temperatures

Place Temperature
No Stations Reporting

Nearby Weather Stations